sensor_id;sensor_type;location;lat;lon;timestamp;P1;durP1;ratioP1;P2;durP2;ratioP2
59145;SDS011;44928;53.074;6.646;2022-12-11T00:00:33;34.25;;;14.60;;
59145;SDS011;44928;53.074;6.646;2022-12-11T00:02:58;30.13;;;14.52;;
59145;SDS011;44928;53.074;6.646;2022-12-11T00:05:24;37.90;;;15.73;;
59145;SDS011;44928;53.074;6.646;2022-12-11T00:07:50;33.10;;;14.23;;
59145;SDS011;44928;53.074;6.646;2022-12-11T00:10:16;31.80;;;12.30;;
59145;SDS011;44928;53.074;6.646;2022-12-11T00:12:41;28.50;;;12.82;;
59145;SDS011;44928;53.074;6.646;2022-12-11T00:15:07;29.70;;;12.98;;
59145;SDS011;44928;53.074;6.646;2022-12-11T00:17:33;30.88;;;14.20;;
59145;SDS011;44928;53.074;6.646;2022-12-11T00:19:59;34.80;;;14.85;;
59145;SDS011;44928;53.074;6.646;2022-12-11T00:22:25;31.00;;;14.38;;
59145;SDS011;44928;53.074;6.646;2022-12-11T00:24:51;39.85;;;15.73;;
59145;SDS011;44928;53.074;6.646;2022-12-11T00:27:17;32.75;;;14.15;;
59145;SDS011;44928;53.074;6.646;2022-12-11T00:29:42;32.13;;;14.40;;
59145;SDS011;44928;53.074;6.646;2022-12-11T00:32:08;34.85;;;14.70;;
59145;SDS011;44928;53.074;6.646;2022-12-11T00:34:34;36.33;;;15.15;;
59145;SDS011;44928;53.074;6.646;2022-12-11T00:37:00;33.22;;;14.73;;
59145;SDS011;44928;53.074;6.646;2022-12-11T00:39:25;31.77;;;14.32;;
59145;SDS011;44928;53.074;6.646;2022-12-11T00:41:51;37.70;;;14.45;;
59145;SDS011;44928;53.074;6.646;2022-12-11T00:44:17;35.33;;;14.75;;
59145;SDS011;44928;53.074;6.646;2022-12-11T00:46:43;33.20;;;14.40;;
59145;SDS011;44928;53.074;6.646;2022-12-11T00:49:08;31.50;;;14.65;;
59145;SDS011;44928;53.074;6.646;2022-12-11T00:51:34;32.13;;;13.27;;
59145;SDS011;44928;53.074;6.646;2022-12-11T00:54:00;33.95;;;14.20;;
59145;SDS011;44928;53.074;6.646;2022-12-11T00:56:26;30.60;;;12.82;;
59145;SDS011;44928;53.074;6.646;2022-12-11T00:58:51;33.70;;;14.18;;
59145;SDS011;44928;53.074;6.646;2022-12-11T01:01:18;35.92;;;14.02;;
59145;SDS011;44928;53.074;6.646;2022-12-11T01:03:46;32.85;;;14.10;;
59145;SDS011;44928;53.074;6.646;2022-12-11T01:06:14;35.10;;;14.57;;
59145;SDS011;44928;53.074;6.646;2022-12-11T01:08:41;42.97;;;15.35;;
59145;SDS011;44928;53.074;6.646;2022-12-11T01:11:08;34.70;;;14.35;;
59145;SDS011;44928;53.074;6.646;2022-12-11T01:13:36;36.25;;;14.93;;
59145;SDS011;44928;53.074;6.646;2022-12-11T01:16:06;34.75;;;14.35;;
59145;SDS011;44928;53.074;6.646;2022-12-11T01:18:34;31.83;;;13.15;;
59145;SDS011;44928;53.074;6.646;2022-12-11T01:21:07;30.85;;;13.02;;
59145;SDS011;44928;53.074;6.646;2022-12-11T01:23:35;37.35;;;14.45;;
59145;SDS011;44928;53.074;6.646;2022-12-11T01:26:05;34.67;;;14.77;;
59145;SDS011;44928;53.074;6.646;2022-12-11T01:28:32;34.47;;;13.75;;
59145;SDS011;44928;53.074;6.646;2022-12-11T01:30:58;35.75;;;14.60;;
59145;SDS011;44928;53.074;6.646;2022-12-11T01:33:24;36.95;;;14.65;;
59145;SDS011;44928;53.074;6.646;2022-12-11T01:35:50;32.60;;;13.57;;
59145;SDS011;44928;53.074;6.646;2022-12-11T01:38:16;38.35;;;14.43;;
59145;SDS011;44928;53.074;6.646;2022-12-11T01:40:46;34.55;;;14.27;;
59145;SDS011;44928;53.074;6.646;2022-12-11T01:43:12;38.15;;;13.93;;
59145;SDS011;44928;53.074;6.646;2022-12-11T01:45:39;36.67;;;15.32;;
59145;SDS011;44928;53.074;6.646;2022-12-11T01:48:13;45.10;;;15.35;;
59145;SDS011;44928;53.074;6.646;2022-12-11T01:50:52;38.25;;;13.82;;
59145;SDS011;44928;53.074;6.646;2022-12-11T01:53:27;34.83;;;14.52;;
59145;SDS011;44928;53.074;6.646;2022-12-11T01:55:57;32.20;;;13.73;;
59145;SDS011;44928;53.074;6.646;2022-12-11T01:58:25;35.35;;;13.80;;
59145;SDS011;44928;53.074;6.646;2022-12-11T02:00:55;31.27;;;13.77;;
59145;SDS011;44928;53.074;6.646;2022-12-11T02:03:22;38.70;;;14.50;;
59145;SDS011;44928;53.074;6.646;2022-12-11T02:05:48;39.25;;;14.95;;
59145;SDS011;44928;53.074;6.646;2022-12-11T02:08:14;36.17;;;15.30;;
59145;SDS011;44928;53.074;6.646;2022-12-11T02:13:20;38.17;;;14.77;;
59145;SDS011;44928;53.074;6.646;2022-12-11T02:18:34;38.70;;;16.27;;
59145;SDS011;44928;53.074;6.646;2022-12-11T02:23:57;38.03;;;14.25;;
59145;SDS011;44928;53.074;6.646;2022-12-11T02:29:22;34.13;;;13.43;;
59145;SDS011;44928;53.074;6.646;2022-12-11T02:32:02;33.53;;;13.15;;
59145;SDS011;44928;53.074;6.646;2022-12-11T02:34:48;38.15;;;14.75;;
59145;SDS011;44928;53.074;6.646;2022-12-11T02:37:23;35.80;;;13.80;;
59145;SDS011;44928;53.074;6.646;2022-12-11T02:39:53;32.38;;;13.27;;
59145;SDS011;44928;53.074;6.646;2022-12-11T02:42:21;28.60;;;12.07;;
59145;SDS011;44928;53.074;6.646;2022-12-11T02:44:51;32.90;;;14.02;;
59145;SDS011;44928;53.074;6.646;2022-12-11T02:47:20;31.88;;;13.85;;
59145;SDS011;44928;53.074;6.646;2022-12-11T02:49:49;32.42;;;13.10;;
59145;SDS011;44928;53.074;6.646;2022-12-11T02:52:19;33.53;;;12.80;;
59145;SDS011;44928;53.074;6.646;2022-12-11T02:54:48;30.70;;;12.38;;
59145;SDS011;44928;53.074;6.646;2022-12-11T02:57:20;32.72;;;12.85;;
59145;SDS011;44928;53.074;6.646;2022-12-11T03:00:07;31.67;;;12.68;;
59145;SDS011;44928;53.074;6.646;2022-12-11T03:02:33;31.15;;;12.90;;
59145;SDS011;44928;53.074;6.646;2022-12-11T03:05:01;31.50;;;13.10;;
59145;SDS011;44928;53.074;6.646;2022-12-11T03:07:27;32.45;;;13.13;;
59145;SDS011;44928;53.074;6.646;2022-12-11T03:12:28;29.70;;;11.50;;
59145;SDS011;44928;53.074;6.646;2022-12-11T03:14:56;30.00;;;12.45;;
59145;SDS011;44928;53.074;6.646;2022-12-11T03:17:29;31.65;;;12.57;;
59145;SDS011;44928;53.074;6.646;2022-12-11T03:22:38;32.58;;;12.90;;
59145;SDS011;44928;53.074;6.646;2022-12-11T03:25:19;28.52;;;12.23;;
59145;SDS011;44928;53.074;6.646;2022-12-11T03:27:57;31.67;;;12.18;;
59145;SDS011;44928;53.074;6.646;2022-12-11T03:30:43;31.17;;;13.00;;
59145;SDS011;44928;53.074;6.646;2022-12-11T03:33:18;28.60;;;12.77;;
59145;SDS011;44928;53.074;6.646;2022-12-11T03:35:54;29.27;;;12.55;;
59145;SDS011;44928;53.074;6.646;2022-12-11T03:38:35;29.80;;;12.18;;
59145;SDS011;44928;53.074;6.646;2022-12-11T03:41:05;33.33;;;12.75;;
59145;SDS011;44928;53.074;6.646;2022-12-11T03:43:33;28.63;;;12.10;;
59145;SDS011;44928;53.074;6.646;2022-12-11T03:46:00;30.60;;;12.55;;
59145;SDS011;44928;53.074;6.646;2022-12-11T03:48:29;29.92;;;12.25;;
59145;SDS011;44928;53.074;6.646;2022-12-11T03:50:57;32.63;;;12.32;;
59145;SDS011;44928;53.074;6.646;2022-12-11T03:53:24;31.42;;;12.20;;
59145;SDS011;44928;53.074;6.646;2022-12-11T03:55:51;29.33;;;12.13;;
59145;SDS011;44928;53.074;6.646;2022-12-11T03:58:22;29.50;;;10.95;;
59145;SDS011;44928;53.074;6.646;2022-12-11T04:00:48;31.25;;;12.20;;
59145;SDS011;44928;53.074;6.646;2022-12-11T04:03:13;30.20;;;12.57;;
59145;SDS011;44928;53.074;6.646;2022-12-11T04:05:42;32.13;;;12.00;;
59145;SDS011;44928;53.074;6.646;2022-12-11T04:08:09;32.58;;;12.25;;
59145;SDS011;44928;53.074;6.646;2022-12-11T04:10:35;34.22;;;13.32;;
59145;SDS011;44928;53.074;6.646;2022-12-11T04:13:01;29.23;;;12.82;;
59145;SDS011;44928;53.074;6.646;2022-12-11T04:15:27;33.80;;;13.15;;
59145;SDS011;44928;53.074;6.646;2022-12-11T04:17:53;30.48;;;12.82;;
59145;SDS011;44928;53.074;6.646;2022-12-11T04:20:37;30.75;;;12.35;;
59145;SDS011;44928;53.074;6.646;2022-12-11T04:23:21;29.10;;;12.55;;
59145;SDS011;44928;53.074;6.646;2022-12-11T04:26:06;34.15;;;14.27;;
59145;SDS011;44928;53.074;6.646;2022-12-11T04:28:34;31.60;;;13.02;;
59145;SDS011;44928;53.074;6.646;2022-12-11T04:31:00;30.23;;;12.27;;
59145;SDS011;44928;53.074;6.646;2022-12-11T04:33:26;33.13;;;12.32;;
59145;SDS011;44928;53.074;6.646;2022-12-11T04:35:52;36.60;;;13.25;;
59145;SDS011;44928;53.074;6.646;2022-12-11T04:38:18;35.72;;;13.32;;
59145;SDS011;44928;53.074;6.646;2022-12-11T04:40:44;32.25;;;13.00;;
59145;SDS011;44928;53.074;6.646;2022-12-11T04:43:10;30.58;;;11.70;;
59145;SDS011;44928;53.074;6.646;2022-12-11T04:45:35;31.80;;;12.57;;
59145;SDS011;44928;53.074;6.646;2022-12-11T04:48:01;34.00;;;13.50;;
59145;SDS011;44928;53.074;6.646;2022-12-11T04:50:27;36.17;;;14.25;;
59145;SDS011;44928;53.074;6.646;2022-12-11T04:52:53;32.95;;;12.85;;
59145;SDS011;44928;53.074;6.646;2022-12-11T04:55:20;35.33;;;14.02;;
59145;SDS011;44928;53.074;6.646;2022-12-11T04:57:46;36.03;;;13.07;;
59145;SDS011;44928;53.074;6.646;2022-12-11T05:00:12;29.42;;;12.52;;
59145;SDS011;44928;53.074;6.646;2022-12-11T05:02:39;31.38;;;13.27;;
59145;SDS011;44928;53.074;6.646;2022-12-11T05:05:06;35.47;;;13.82;;
59145;SDS011;44928;53.074;6.646;2022-12-11T05:10:03;34.47;;;13.48;;
59145;SDS011;44928;53.074;6.646;2022-12-11T05:12:30;34.85;;;13.00;;
59145;SDS011;44928;53.074;6.646;2022-12-11T05:14:57;36.08;;;13.57;;
59145;SDS011;44928;53.074;6.646;2022-12-11T05:17:22;38.35;;;14.95;;
59145;SDS011;44928;53.074;6.646;2022-12-11T05:19:49;32.83;;;13.75;;
59145;SDS011;44928;53.074;6.646;2022-12-11T05:22:16;34.75;;;14.18;;
59145;SDS011;44928;53.074;6.646;2022-12-11T05:24:42;33.65;;;13.82;;
59145;SDS011;44928;53.074;6.646;2022-12-11T05:27:08;37.35;;;14.68;;
59145;SDS011;44928;53.074;6.646;2022-12-11T05:29:35;33.53;;;14.50;;
59145;SDS011;44928;53.074;6.646;2022-12-11T05:32:01;34.72;;;13.98;;
59145;SDS011;44928;53.074;6.646;2022-12-11T05:34:27;36.28;;;14.27;;
59145;SDS011;44928;53.074;6.646;2022-12-11T05:36:53;39.10;;;14.75;;
59145;SDS011;44928;53.074;6.646;2022-12-11T05:39:19;32.72;;;14.82;;
59145;SDS011;44928;53.074;6.646;2022-12-11T05:41:44;36.90;;;14.73;;
59145;SDS011;44928;53.074;6.646;2022-12-11T05:44:11;39.00;;;14.70;;
59145;SDS011;44928;53.074;6.646;2022-12-11T05:46:37;36.45;;;14.82;;
59145;SDS011;44928;53.074;6.646;2022-12-11T05:49:04;37.60;;;15.38;;
59145;SDS011;44928;53.074;6.646;2022-12-11T05:51:31;35.65;;;13.45;;
59145;SDS011;44928;53.074;6.646;2022-12-11T05:54:00;34.97;;;14.67;;
59145;SDS011;44928;53.074;6.646;2022-12-11T05:56:27;34.17;;;14.35;;
59145;SDS011;44928;53.074;6.646;2022-12-11T05:58:55;37.17;;;14.93;;
59145;SDS011;44928;53.074;6.646;2022-12-11T06:01:28;30.85;;;13.73;;
59145;SDS011;44928;53.074;6.646;2022-12-11T06:03:56;31.92;;;14.55;;
59145;SDS011;44928;53.074;6.646;2022-12-11T06:06:23;35.90;;;14.68;;
59145;SDS011;44928;53.074;6.646;2022-12-11T06:08:53;35.78;;;14.10;;
59145;SDS011;44928;53.074;6.646;2022-12-11T06:11:20;34.75;;;14.55;;
59145;SDS011;44928;53.074;6.646;2022-12-11T06:13:47;33.20;;;13.43;;
59145;SDS011;44928;53.074;6.646;2022-12-11T06:16:13;31.10;;;13.32;;
59145;SDS011;44928;53.074;6.646;2022-12-11T06:18:39;31.60;;;13.02;;
59145;SDS011;44928;53.074;6.646;2022-12-11T06:21:26;30.48;;;12.45;;
59145;SDS011;44928;53.074;6.646;2022-12-11T06:23:55;34.03;;;13.38;;
59145;SDS011;44928;53.074;6.646;2022-12-11T06:26:22;30.58;;;12.07;;
59145;SDS011;44928;53.074;6.646;2022-12-11T06:28:48;31.10;;;13.40;;
59145;SDS011;44928;53.074;6.646;2022-12-11T06:31:14;33.28;;;13.00;;
59145;SDS011;44928;53.074;6.646;2022-12-11T06:33:41;30.17;;;13.43;;
59145;SDS011;44928;53.074;6.646;2022-12-11T06:36:08;32.35;;;13.95;;
59145;SDS011;44928;53.074;6.646;2022-12-11T06:38:35;35.58;;;13.55;;
59145;SDS011;44928;53.074;6.646;2022-12-11T06:41:02;33.53;;;14.38;;
59145;SDS011;44928;53.074;6.646;2022-12-11T06:43:29;31.20;;;13.20;;
59145;SDS011;44928;53.074;6.646;2022-12-11T06:45:58;34.08;;;13.40;;
59145;SDS011;44928;53.074;6.646;2022-12-11T06:48:27;33.53;;;13.43;;
59145;SDS011;44928;53.074;6.646;2022-12-11T06:50:53;31.40;;;11.82;;
59145;SDS011;44928;53.074;6.646;2022-12-11T06:53:19;32.78;;;14.43;;
59145;SDS011;44928;53.074;6.646;2022-12-11T06:55:44;34.13;;;12.75;;
59145;SDS011;44928;53.074;6.646;2022-12-11T06:58:10;35.42;;;13.13;;
59145;SDS011;44928;53.074;6.646;2022-12-11T07:00:36;30.92;;;13.07;;
59145;SDS011;44928;53.074;6.646;2022-12-11T07:03:03;32.38;;;12.63;;
59145;SDS011;44928;53.074;6.646;2022-12-11T07:05:30;33.08;;;12.52;;
59145;SDS011;44928;53.074;6.646;2022-12-11T07:07:56;30.02;;;12.93;;
59145;SDS011;44928;53.074;6.646;2022-12-11T07:10:22;33.13;;;13.23;;
59145;SDS011;44928;53.074;6.646;2022-12-11T07:12:48;32.38;;;12.50;;
59145;SDS011;44928;53.074;6.646;2022-12-11T07:15:16;30.55;;;13.65;;
59145;SDS011;44928;53.074;6.646;2022-12-11T07:17:42;34.15;;;13.23;;
59145;SDS011;44928;53.074;6.646;2022-12-11T07:20:08;32.95;;;13.63;;
59145;SDS011;44928;53.074;6.646;2022-12-11T07:22:35;36.88;;;13.13;;
59145;SDS011;44928;53.074;6.646;2022-12-11T07:25:01;32.05;;;12.90;;
59145;SDS011;44928;53.074;6.646;2022-12-11T07:27:27;30.85;;;12.27;;
59145;SDS011;44928;53.074;6.646;2022-12-11T07:29:53;30.00;;;13.30;;
59145;SDS011;44928;53.074;6.646;2022-12-11T07:32:20;31.75;;;12.32;;
59145;SDS011;44928;53.074;6.646;2022-12-11T07:34:48;32.85;;;13.15;;
59145;SDS011;44928;53.074;6.646;2022-12-11T07:37:15;31.65;;;12.93;;
59145;SDS011;44928;53.074;6.646;2022-12-11T07:39:41;32.13;;;13.07;;
59145;SDS011;44928;53.074;6.646;2022-12-11T07:42:07;33.80;;;13.40;;
59145;SDS011;44928;53.074;6.646;2022-12-11T07:44:32;31.05;;;13.13;;
59145;SDS011;44928;53.074;6.646;2022-12-11T07:46:58;33.95;;;13.68;;
59145;SDS011;44928;53.074;6.646;2022-12-11T07:49:24;32.45;;;13.70;;
59145;SDS011;44928;53.074;6.646;2022-12-11T07:51:50;34.22;;;13.75;;
59145;SDS011;44928;53.074;6.646;2022-12-11T07:54:16;36.15;;;14.85;;
59145;SDS011;44928;53.074;6.646;2022-12-11T07:56:45;35.45;;;15.43;;
59145;SDS011;44928;53.074;6.646;2022-12-11T07:59:11;34.60;;;14.40;;
59145;SDS011;44928;53.074;6.646;2022-12-11T08:01:38;33.65;;;15.25;;
59145;SDS011;44928;53.074;6.646;2022-12-11T08:04:06;40.00;;;15.95;;
59145;SDS011;44928;53.074;6.646;2022-12-11T08:06:35;33.13;;;14.93;;
59145;SDS011;44928;53.074;6.646;2022-12-11T08:09:04;32.90;;;13.10;;
59145;SDS011;44928;53.074;6.646;2022-12-11T08:11:31;34.75;;;13.52;;
59145;SDS011;44928;53.074;6.646;2022-12-11T08:13:58;28.65;;;13.60;;
59145;SDS011;44928;53.074;6.646;2022-12-11T08:16:24;29.80;;;13.23;;
59145;SDS011;44928;53.074;6.646;2022-12-11T08:18:50;38.00;;;14.45;;
59145;SDS011;44928;53.074;6.646;2022-12-11T08:21:20;32.08;;;13.35;;
59145;SDS011;44928;53.074;6.646;2022-12-11T08:23:48;30.10;;;13.52;;
59145;SDS011;44928;53.074;6.646;2022-12-11T08:26:16;30.80;;;12.25;;
59145;SDS011;44928;53.074;6.646;2022-12-11T08:28:44;31.33;;;13.48;;
59145;SDS011;44928;53.074;6.646;2022-12-11T08:31:10;32.97;;;14.80;;
59145;SDS011;44928;53.074;6.646;2022-12-11T08:33:38;32.22;;;13.93;;
59145;SDS011;44928;53.074;6.646;2022-12-11T08:36:06;29.98;;;13.23;;
59145;SDS011;44928;53.074;6.646;2022-12-11T08:38:33;32.47;;;13.70;;
59145;SDS011;44928;53.074;6.646;2022-12-11T08:43:38;33.70;;;13.05;;
59145;SDS011;44928;53.074;6.646;2022-12-11T08:46:04;31.60;;;13.57;;
59145;SDS011;44928;53.074;6.646;2022-12-11T08:48:31;32.08;;;14.38;;
59145;SDS011;44928;53.074;6.646;2022-12-11T08:51:00;36.25;;;13.27;;
59145;SDS011;44928;53.074;6.646;2022-12-11T08:53:28;33.67;;;13.77;;
59145;SDS011;44928;53.074;6.646;2022-12-11T08:55:59;34.70;;;14.15;;
59145;SDS011;44928;53.074;6.646;2022-12-11T08:58:29;33.63;;;13.45;;
59145;SDS011;44928;53.074;6.646;2022-12-11T09:00:55;31.65;;;14.15;;
59145;SDS011;44928;53.074;6.646;2022-12-11T09:03:21;33.13;;;13.40;;
59145;SDS011;44928;53.074;6.646;2022-12-11T09:05:47;32.67;;;13.60;;
59145;SDS011;44928;53.074;6.646;2022-12-11T09:08:13;28.35;;;12.98;;
59145;SDS011;44928;53.074;6.646;2022-12-11T09:10:39;37.70;;;14.48;;
59145;SDS011;44928;53.074;6.646;2022-12-11T09:13:05;35.75;;;14.27;;
59145;SDS011;44928;53.074;6.646;2022-12-11T09:15:31;33.67;;;13.95;;
59145;SDS011;44928;53.074;6.646;2022-12-11T09:17:57;33.08;;;13.38;;
59145;SDS011;44928;53.074;6.646;2022-12-11T09:20:23;30.63;;;13.68;;
59145;SDS011;44928;53.074;6.646;2022-12-11T09:22:49;36.60;;;14.45;;
59145;SDS011;44928;53.074;6.646;2022-12-11T09:25:14;29.05;;;13.38;;
59145;SDS011;44928;53.074;6.646;2022-12-11T09:27:40;34.88;;;15.05;;
59145;SDS011;44928;53.074;6.646;2022-12-11T09:30:06;31.20;;;13.07;;
59145;SDS011;44928;53.074;6.646;2022-12-11T09:32:33;35.63;;;15.30;;
59145;SDS011;44928;53.074;6.646;2022-12-11T09:34:58;38.35;;;16.02;;
59145;SDS011;44928;53.074;6.646;2022-12-11T09:37:24;32.47;;;13.82;;
59145;SDS011;44928;53.074;6.646;2022-12-11T09:39:50;36.15;;;15.13;;
59145;SDS011;44928;53.074;6.646;2022-12-11T09:44:57;32.55;;;14.80;;
59145;SDS011;44928;53.074;6.646;2022-12-11T09:50:02;35.65;;;16.10;;
59145;SDS011;44928;53.074;6.646;2022-12-11T09:55:30;33.28;;;14.73;;
59145;SDS011;44928;53.074;6.646;2022-12-11T09:58:14;34.65;;;14.70;;
59145;SDS011;44928;53.074;6.646;2022-12-11T10:01:05;32.13;;;13.55;;
59145;SDS011;44928;53.074;6.646;2022-12-11T10:03:43;34.63;;;14.88;;
59145;SDS011;44928;53.074;6.646;2022-12-11T10:08:59;33.15;;;15.05;;
59145;SDS011;44928;53.074;6.646;2022-12-11T10:11:55;36.00;;;14.65;;
59145;SDS011;44928;53.074;6.646;2022-12-11T10:14:50;33.90;;;15.32;;
59145;SDS011;44928;53.074;6.646;2022-12-11T10:17:30;33.10;;;13.82;;
59145;SDS011;44928;53.074;6.646;2022-12-11T10:19:59;29.77;;;12.95;;
59145;SDS011;44928;53.074;6.646;2022-12-11T10:22:38;35.25;;;14.32;;
59145;SDS011;44928;53.074;6.646;2022-12-11T10:25:05;36.42;;;15.40;;
59145;SDS011;44928;53.074;6.646;2022-12-11T10:27:38;31.02;;;14.20;;
59145;SDS011;44928;53.074;6.646;2022-12-11T10:40:41;31.52;;;14.18;;
59145;SDS011;44928;53.074;6.646;2022-12-11T10:43:09;36.72;;;16.42;;
59145;SDS011;44928;53.074;6.646;2022-12-11T10:45:35;37.67;;;15.68;;
59145;SDS011;44928;53.074;6.646;2022-12-11T10:48:02;35.97;;;15.50;;
59145;SDS011;44928;53.074;6.646;2022-12-11T10:50:35;35.33;;;14.02;;
59145;SDS011;44928;53.074;6.646;2022-12-11T10:53:01;33.53;;;14.48;;
59145;SDS011;44928;53.074;6.646;2022-12-11T10:55:28;34.63;;;14.70;;
59145;SDS011;44928;53.074;6.646;2022-12-11T10:58:03;38.50;;;15.50;;
59145;SDS011;44928;53.074;6.646;2022-12-11T11:03:27;34.70;;;14.10;;
59145;SDS011;44928;53.074;6.646;2022-12-11T11:06:02;33.35;;;13.57;;
59145;SDS011;44928;53.074;6.646;2022-12-11T11:08:43;31.05;;;13.55;;
59145;SDS011;44928;53.074;6.646;2022-12-11T11:11:30;31.90;;;14.98;;
59145;SDS011;44928;53.074;6.646;2022-12-11T11:16:48;31.60;;;14.70;;
59145;SDS011;44928;53.074;6.646;2022-12-11T11:19:26;31.52;;;13.38;;
59145;SDS011;44928;53.074;6.646;2022-12-11T11:21:59;32.38;;;14.00;;
59145;SDS011;44928;53.074;6.646;2022-12-11T11:26:52;34.65;;;15.45;;
59145;SDS011;44928;53.074;6.646;2022-12-11T11:29:22;33.63;;;14.80;;
59145;SDS011;44928;53.074;6.646;2022-12-11T11:31:53;29.20;;;13.77;;
59145;SDS011;44928;53.074;6.646;2022-12-11T11:34:19;28.45;;;13.75;;
59145;SDS011;44928;53.074;6.646;2022-12-11T11:36:54;32.63;;;14.52;;
59145;SDS011;44928;53.074;6.646;2022-12-11T11:39:25;35.40;;;14.18;;
59145;SDS011;44928;53.074;6.646;2022-12-11T11:42:09;33.50;;;14.65;;
59145;SDS011;44928;53.074;6.646;2022-12-11T11:50:44;30.02;;;14.05;;
59145;SDS011;44928;53.074;6.646;2022-12-11T12:01:11;37.00;;;14.77;;
59145;SDS011;44928;53.074;6.646;2022-12-11T12:03:40;31.90;;;14.38;;
59145;SDS011;44928;53.074;6.646;2022-12-11T12:06:09;32.95;;;15.55;;
59145;SDS011;44928;53.074;6.646;2022-12-11T12:22:14;35.50;;;15.32;;
59145;SDS011;44928;53.074;6.646;2022-12-11T12:27:52;32.72;;;14.65;;
59145;SDS011;44928;53.074;6.646;2022-12-11T12:41:43;37.60;;;15.00;;
59145;SDS011;44928;53.074;6.646;2022-12-11T12:44:16;33.42;;;14.57;;
59145;SDS011;44928;53.074;6.646;2022-12-11T12:46:53;37.70;;;15.45;;
59145;SDS011;44928;53.074;6.646;2022-12-11T12:52:02;33.38;;;14.43;;
59145;SDS011;44928;53.074;6.646;2022-12-11T12:54:30;32.63;;;14.27;;
59145;SDS011;44928;53.074;6.646;2022-12-11T12:56:58;38.60;;;14.98;;
59145;SDS011;44928;53.074;6.646;2022-12-11T12:59:27;40.38;;;15.95;;
59145;SDS011;44928;53.074;6.646;2022-12-11T13:01:54;35.88;;;15.77;;
59145;SDS011;44928;53.074;6.646;2022-12-11T13:04:28;39.70;;;16.05;;
59145;SDS011;44928;53.074;6.646;2022-12-11T13:06:58;31.77;;;13.88;;
59145;SDS011;44928;53.074;6.646;2022-12-11T13:09:54;32.17;;;14.40;;
59145;SDS011;44928;53.074;6.646;2022-12-11T13:12:33;34.17;;;13.73;;
59145;SDS011;44928;53.074;6.646;2022-12-11T13:15:22;35.10;;;16.08;;
59145;SDS011;44928;53.074;6.646;2022-12-11T13:17:48;37.55;;;15.95;;
59145;SDS011;44928;53.074;6.646;2022-12-11T13:20:17;34.17;;;14.48;;
59145;SDS011;44928;53.074;6.646;2022-12-11T13:25:48;33.33;;;15.10;;
59145;SDS011;44928;53.074;6.646;2022-12-11T13:28:21;32.92;;;15.02;;
59145;SDS011;44928;53.074;6.646;2022-12-11T13:30:59;32.05;;;14.77;;
59145;SDS011;44928;53.074;6.646;2022-12-11T13:33:31;32.38;;;15.15;;
59145;SDS011;44928;53.074;6.646;2022-12-11T13:38:35;37.85;;;15.88;;
59145;SDS011;44928;53.074;6.646;2022-12-11T13:41:02;32.65;;;15.80;;
59145;SDS011;44928;53.074;6.646;2022-12-11T13:43:35;35.05;;;14.60;;
59145;SDS011;44928;53.074;6.646;2022-12-11T13:46:03;34.55;;;16.08;;
59145;SDS011;44928;53.074;6.646;2022-12-11T13:51:00;36.35;;;15.70;;
59145;SDS011;44928;53.074;6.646;2022-12-11T13:53:27;33.42;;;14.35;;
59145;SDS011;44928;53.074;6.646;2022-12-11T13:58:29;37.85;;;16.45;;
59145;SDS011;44928;53.074;6.646;2022-12-11T14:03:30;36.47;;;15.73;;
59145;SDS011;44928;53.074;6.646;2022-12-11T14:05:57;37.78;;;17.35;;
59145;SDS011;44928;53.074;6.646;2022-12-11T14:08:26;37.63;;;15.93;;
59145;SDS011;44928;53.074;6.646;2022-12-11T14:11:00;37.28;;;16.52;;
59145;SDS011;44928;53.074;6.646;2022-12-11T14:13:29;34.90;;;16.10;;
59145;SDS011;44928;53.074;6.646;2022-12-11T14:15:58;37.22;;;17.17;;
59145;SDS011;44928;53.074;6.646;2022-12-11T14:18:25;35.33;;;16.13;;
59145;SDS011;44928;53.074;6.646;2022-12-11T14:20:57;38.28;;;16.00;;
59145;SDS011;44928;53.074;6.646;2022-12-11T14:23:26;38.50;;;17.90;;
59145;SDS011;44928;53.074;6.646;2022-12-11T14:28:27;36.03;;;16.33;;
59145;SDS011;44928;53.074;6.646;2022-12-11T14:30:56;36.05;;;17.13;;
59145;SDS011;44928;53.074;6.646;2022-12-11T14:33:31;38.20;;;17.17;;
59145;SDS011;44928;53.074;6.646;2022-12-11T14:36:02;36.28;;;16.08;;
59145;SDS011;44928;53.074;6.646;2022-12-11T14:38:30;36.90;;;17.02;;
59145;SDS011;44928;53.074;6.646;2022-12-11T14:43:41;36.63;;;17.20;;
59145;SDS011;44928;53.074;6.646;2022-12-11T14:46:16;38.88;;;16.55;;
59145;SDS011;44928;53.074;6.646;2022-12-11T14:48:55;39.75;;;17.75;;
59145;SDS011;44928;53.074;6.646;2022-12-11T14:51:27;40.65;;;17.85;;
59145;SDS011;44928;53.074;6.646;2022-12-11T14:53:55;37.72;;;16.40;;
59145;SDS011;44928;53.074;6.646;2022-12-11T14:56:22;34.58;;;16.75;;
59145;SDS011;44928;53.074;6.646;2022-12-11T14:58:53;37.15;;;17.10;;
59145;SDS011;44928;53.074;6.646;2022-12-11T15:01:32;36.05;;;17.40;;
59145;SDS011;44928;53.074;6.646;2022-12-11T15:06:47;40.30;;;17.75;;
59145;SDS011;44928;53.074;6.646;2022-12-11T15:09:18;38.28;;;17.60;;
59145;SDS011;44928;53.074;6.646;2022-12-11T15:11:50;34.72;;;17.00;;
59145;SDS011;44928;53.074;6.646;2022-12-11T15:14:19;39.13;;;17.65;;
59145;SDS011;44928;53.074;6.646;2022-12-11T15:16:46;42.08;;;16.85;;
59145;SDS011;44928;53.074;6.646;2022-12-11T15:19:32;40.17;;;16.58;;
59145;SDS011;44928;53.074;6.646;2022-12-11T15:22:03;39.25;;;17.10;;
59145;SDS011;44928;53.074;6.646;2022-12-11T15:27:15;37.42;;;16.35;;
59145;SDS011;44928;53.074;6.646;2022-12-11T15:35:55;34.25;;;16.75;;
59145;SDS011;44928;53.074;6.646;2022-12-11T15:40:52;34.30;;;15.87;;
59145;SDS011;44928;53.074;6.646;2022-12-11T15:43:18;35.75;;;18.02;;
59145;SDS011;44928;53.074;6.646;2022-12-11T15:45:44;34.42;;;16.83;;
59145;SDS011;44928;53.074;6.646;2022-12-11T15:48:10;33.13;;;16.52;;
59145;SDS011;44928;53.074;6.646;2022-12-11T15:50:35;33.00;;;16.65;;
59145;SDS011;44928;53.074;6.646;2022-12-11T15:53:01;37.65;;;17.15;;
59145;SDS011;44928;53.074;6.646;2022-12-11T15:55:27;34.85;;;16.52;;
59145;SDS011;44928;53.074;6.646;2022-12-11T15:58:03;37.00;;;17.02;;
59145;SDS011;44928;53.074;6.646;2022-12-11T16:00:31;36.35;;;18.00;;
59145;SDS011;44928;53.074;6.646;2022-12-11T16:02:57;33.38;;;15.55;;
59145;SDS011;44928;53.074;6.646;2022-12-11T16:05:23;32.47;;;15.60;;
59145;SDS011;44928;53.074;6.646;2022-12-11T16:07:50;29.63;;;15.15;;
59145;SDS011;44928;53.074;6.646;2022-12-11T16:10:18;32.67;;;16.30;;
59145;SDS011;44928;53.074;6.646;2022-12-11T16:12:45;33.47;;;16.20;;
59145;SDS011;44928;53.074;6.646;2022-12-11T16:15:12;34.88;;;16.75;;
59145;SDS011;44928;53.074;6.646;2022-12-11T16:17:39;32.92;;;16.13;;
59145;SDS011;44928;53.074;6.646;2022-12-11T16:20:06;33.47;;;15.27;;
59145;SDS011;44928;53.074;6.646;2022-12-11T16:22:33;31.15;;;15.60;;
59145;SDS011;44928;53.074;6.646;2022-12-11T16:24:59;31.30;;;14.90;;
59145;SDS011;44928;53.074;6.646;2022-12-11T16:27:25;28.13;;;14.10;;
59145;SDS011;44928;53.074;6.646;2022-12-11T16:29:50;30.58;;;15.48;;
59145;SDS011;44928;53.074;6.646;2022-12-11T16:32:16;31.55;;;15.40;;
59145;SDS011;44928;53.074;6.646;2022-12-11T16:34:42;31.60;;;16.08;;
59145;SDS011;44928;53.074;6.646;2022-12-11T16:37:09;33.00;;;15.73;;
59145;SDS011;44928;53.074;6.646;2022-12-11T16:39:35;29.65;;;14.07;;